createdAt,value
2022-09-01T03:10:36.898Z,14.79
2022-09-01T03:13:42.229Z,14.83
2022-09-01T03:16:44.792Z,14.74
2022-09-01T03:19:47.189Z,14.78
2022-09-01T03:22:51.641Z,14.73
2022-09-01T03:25:55.613Z,14.73
2022-09-01T03:28:59.115Z,14.79
2022-09-01T03:32:01.576Z,14.82
2022-09-01T03:35:04.597Z,14.77
2022-09-01T03:38:07.082Z,14.69
2022-09-01T03:41:09.671Z,14.68
2022-09-01T03:44:16.196Z,14.82
2022-09-01T03:47:18.905Z,14.72
2022-09-01T03:50:23.949Z,14.74
2022-09-01T03:53:27.588Z,14.67
2022-09-01T03:56:30.496Z,14.61
2022-09-01T03:59:33.232Z,14.71
2022-09-01T04:02:36.671Z,14.84
2022-09-01T04:05:44.675Z,14.74
2022-09-01T04:08:47.421Z,14.68
2022-09-01T04:11:53.046Z,14.60
2022-09-01T04:14:55.611Z,14.65
2022-09-01T04:18:10.825Z,14.80
2022-09-01T04:21:13.997Z,14.83
2022-09-01T04:24:18.821Z,14.83
2022-09-01T04:27:26.479Z,14.75
2022-09-01T04:30:31.865Z,14.72
2022-09-01T04:33:39.771Z,14.63
2022-09-01T04:36:44.802Z,14.61
2022-09-01T04:39:56.904Z,14.49
2022-09-01T04:42:59.703Z,14.56
2022-09-01T04:46:03.297Z,14.59
2022-09-01T04:49:10.272Z,14.60
2022-09-01T04:52:15.721Z,14.43
2022-09-01T04:55:18.341Z,14.43
2022-09-01T04:58:22.036Z,14.46
2022-09-01T05:01:26.560Z,14.46
2022-09-01T05:04:33.809Z,14.43
2022-09-01T05:07:37.956Z,14.49
2022-09-01T05:10:45.447Z,14.51
2022-09-01T05:13:49.605Z,14.50
2022-09-01T05:16:57.113Z,14.51
2022-09-01T05:19:59.753Z,14.44
2022-09-01T05:23:02.363Z,14.34
2022-09-01T05:26:07.412Z,14.25
2022-09-01T05:29:13.335Z,14.33
2022-09-01T05:32:15.926Z,14.33
2022-09-01T05:35:18.727Z,14.32
2022-09-01T05:38:21.802Z,14.27
2022-09-01T05:41:24.470Z,14.17
2022-09-01T05:44:27.617Z,14.23
2022-09-01T05:47:30.005Z,14.34
2022-09-01T05:50:32.446Z,14.27
2022-09-01T05:53:34.555Z,14.27
2022-09-01T05:56:43.545Z,14.03
2022-09-01T05:59:53.454Z,14.03
2022-09-01T06:02:57.974Z,14.12
2022-09-01T06:06:08.710Z,14.06
2022-09-01T06:09:12.031Z,14.12
2022-09-01T06:12:24.223Z,14.10
2022-09-01T06:15:30.854Z,14.09
2022-09-01T06:18:34.287Z,14.18
2022-09-01T06:21:39.769Z,14.29
2022-09-01T06:24:44.882Z,14.48
2022-09-01T06:27:48.374Z,14.57
2022-09-01T06:30:51.336Z,14.55
2022-09-01T06:33:55.170Z,14.56
2022-09-01T06:36:57.744Z,14.60
2022-09-01T06:39:59.873Z,14.67
2022-09-01T06:43:07.967Z,14.60
2022-09-01T06:46:10.714Z,14.59
2022-09-01T06:49:13.191Z,14.46
2022-09-01T06:52:16.232Z,14.64
2022-09-01T06:55:18.887Z,14.64
2022-09-01T06:58:21.441Z,14.70
2022-09-01T07:01:26.252Z,14.74
2022-09-01T07:04:31.433Z,14.82
2022-09-01T07:14:25.009Z,14.87
2022-09-01T07:17:28.369Z,15.13
2022-09-01T07:20:35.690Z,15.03
2022-09-01T07:23:47.337Z,15.26
2022-09-01T07:27:09.375Z,15.51
2022-09-01T07:30:12.879Z,15.70
2022-09-01T07:43:37.589Z,16.26
2022-09-01T07:46:42.814Z,16.11
2022-09-01T07:50:24.296Z,16.24
2022-09-01T07:53:09.582Z,16.27
2022-09-01T07:56:12.701Z,16.21
2022-09-01T07:59:15.747Z,16.39
2022-09-01T08:02:21.368Z,16.23
2022-09-01T08:05:27.072Z,16.49
2022-09-01T08:08:29.713Z,16.41
2022-09-01T08:12:00.674Z,16.54
2022-09-01T08:18:18.960Z,16.60
2022-09-01T08:21:23.473Z,16.74
2022-09-01T08:24:29.096Z,16.81
2022-09-01T08:27:33.217Z,17.00
2022-09-01T08:30:37.898Z,16.96
2022-09-01T08:33:41.846Z,16.95
2022-09-01T08:36:44.662Z,16.87
2022-09-01T08:39:48.461Z,17.20
2022-09-01T08:42:54.358Z,17.60
2022-09-01T08:46:02.145Z,18.00
2022-09-01T08:49:29.265Z,18.17
2022-09-01T08:52:38.919Z,18.26
2022-09-01T08:55:45.228Z,18.47
2022-09-01T08:58:48.101Z,18.47
2022-09-01T09:02:04.969Z,18.57
2022-09-01T09:05:42.858Z,18.65
2022-09-01T09:09:05.009Z,18.55
2022-09-01T09:12:25.836Z,18.37
2022-09-01T09:15:47.563Z,18.35
2022-09-01T09:18:55.967Z,18.26
2022-09-01T09:22:02.391Z,18.49
2022-09-01T09:25:19.131Z,18.49
2022-09-01T09:28:21.803Z,18.28
2022-09-01T09:31:43.622Z,17.91
2022-09-01T09:34:48.869Z,18.24
2022-09-01T09:37:51.421Z,18.24
2022-09-01T09:41:26.855Z,18.52
2022-09-01T09:44:32.918Z,19.04
2022-09-01T09:47:46.300Z,19.51
2022-09-01T09:50:48.524Z,19.99
2022-09-01T09:53:54.284Z,19.83
2022-09-01T09:57:04.893Z,19.87
2022-09-01T10:00:23.823Z,19.67
2022-09-01T10:03:43.952Z,19.93
2022-09-01T10:06:47.065Z,19.91
2022-09-01T10:09:51.304Z,20.19
2022-09-01T10:12:54.939Z,20.41
2022-09-01T10:16:00.998Z,20.83
2022-09-01T10:19:12.500Z,21.25
2022-09-01T10:22:15.507Z,20.81
2022-09-01T10:25:20.856Z,20.95
2022-09-01T10:28:24.388Z,21.36
2022-09-01T10:31:32.780Z,21.97
2022-09-01T10:34:38.394Z,22.45
2022-09-01T10:37:42.180Z,22.15
2022-09-01T10:41:14.186Z,22.24
2022-09-01T10:44:25.377Z,23.10
2022-09-01T10:47:33.589Z,24.01
2022-09-01T10:50:36.433Z,24.20
2022-09-01T10:53:48.101Z,23.90
2022-09-01T10:56:53.331Z,23.40
2022-09-01T10:59:58.053Z,22.75
2022-09-01T11:10:33.844Z,31.61
2022-09-01T11:13:50.126Z,32.71
2022-09-01T11:17:11.587Z,33.19
2022-09-01T11:20:26.133Z,34.09
2022-09-01T11:23:30.674Z,33.70
2022-09-01T11:26:33.088Z,32.99
2022-09-01T11:29:55.441Z,30.98
2022-09-01T11:33:16.529Z,30.21
2022-09-01T11:36:19.734Z,30.27
2022-09-01T11:39:41.972Z,28.42
2022-09-01T11:42:46.597Z,26.77
2022-09-01T11:46:15.052Z,25.80
2022-09-01T11:49:32.622Z,24.81
2022-09-01T11:52:37.783Z,24.28
2022-09-01T11:55:46.550Z,24.78
2022-09-01T11:58:48.983Z,24.95
2022-09-01T12:01:57.843Z,24.77
2022-09-01T12:05:03.764Z,24.88
2022-09-01T12:08:14.267Z,25.13
2022-09-01T12:11:31.433Z,25.05
2022-09-01T12:14:54.885Z,25.22
2022-09-01T12:18:20.874Z,25.23
2022-09-01T12:21:28.329Z,24.81
2022-09-01T12:24:35.387Z,25.09
2022-09-01T12:27:37.548Z,24.84
2022-09-01T12:30:41.086Z,24.47
2022-09-01T12:33:44.490Z,24.34
2022-09-01T12:37:10.556Z,24.11
2022-09-01T12:40:33.659Z,23.99
2022-09-01T12:43:41.926Z,24.01
2022-09-01T12:46:46.689Z,24.22
2022-09-01T12:49:52.008Z,24.05
2022-09-01T12:53:00.189Z,24.22
2022-09-01T12:56:18.393Z,24.11
2022-09-01T12:59:37.237Z,23.91
2022-09-01T13:02:43.778Z,23.82
2022-09-01T13:05:51.713Z,23.70
2022-09-01T13:08:54.126Z,23.55
2022-09-01T13:12:10.817Z,23.43
2022-09-01T13:18:18.318Z,23.33
2022-09-01T13:21:21.826Z,23.26
2022-09-01T13:24:28.489Z,23.19
2022-09-01T13:27:32.769Z,23.28
2022-09-01T13:30:35.201Z,23.17
2022-09-01T13:36:59.932Z,23.41
2022-09-01T13:40:03.666Z,23.73
2022-09-01T13:43:06.262Z,23.95
2022-09-01T13:46:09.482Z,23.83
2022-09-01T13:52:34.605Z,23.87
2022-09-01T13:55:40.319Z,23.66
2022-09-01T13:58:42.728Z,23.63
2022-09-01T14:01:48.306Z,23.57
2022-09-01T14:04:50.633Z,23.49
2022-09-01T14:07:53.342Z,23.46
2022-09-01T14:10:55.690Z,23.53
2022-09-01T14:13:57.998Z,23.57
2022-09-01T14:17:00.352Z,23.64
2022-09-01T14:20:04.677Z,23.56
2022-09-01T14:23:08.907Z,23.43
2022-09-01T14:26:12.941Z,23.36
2022-09-01T14:29:15.345Z,23.48
2022-09-01T14:32:18.862Z,23.49
2022-09-01T14:35:26.365Z,23.63
2022-09-01T14:38:28.717Z,23.66
2022-09-01T14:41:32.339Z,23.69
2022-09-01T14:44:38.366Z,23.74
2022-09-01T14:47:40.804Z,23.76
2022-09-01T14:50:45.513Z,23.81
2022-09-01T14:53:49.119Z,23.85
2022-09-01T15:00:14.236Z,23.64
2022-09-01T15:03:20.501Z,23.70
2022-09-01T15:06:24.938Z,23.63
2022-09-01T15:09:27.032Z,23.56
